CheckWX is a tool to help pilots better visualize weather data.  It is not intended as a substitute for an official pre-flight weather briefing.

22:36:46 UTC

KLGB TAF
Long Beach / Daugherty Field / Airport
Long Beach, California, USA
KLGB 232339Z 2400/2424 27008KT P6SM SKC FM240400 VRB03KT P6SM SKC FM240700 17005KT P6SM OVC020 FM241600 18006KT P6SM SKC FM241900 21008KT P6SM SKC

May-24@
00:00 UTC

May-24 @ 00:00 UTC

May-24@
04:00 UTC

May-24 @ 04:00 UTC

TAF KLGB 232339Z 2400/2424 27008KT P6SM SKC

Expired

Wind
  • 270° at 8 KTS
Cloud Levels
  • Clear skies

May-24@
04:00 UTC

May-24 @ 04:00 UTC

May-24@
07:00 UTC

May-24 @ 07:00 UTC

FM240400 VRB03KT P6SM SKC

Expired

Wind
  • Variable at 3 KTS
Cloud Levels
  • Clear skies

May-24@
07:00 UTC

May-24 @ 07:00 UTC

May-24@
16:00 UTC

May-24 @ 16:00 UTC

FM240700 17005KT P6SM OVC020

Expired

Wind
  • 170° at 5 KTS
Cloud Levels
  • Overcast at 2,000' AGL

May-24@
16:00 UTC

May-24 @ 16:00 UTC

May-24@
19:00 UTC

May-24 @ 19:00 UTC

FM241600 18006KT P6SM SKC

Expired

Wind
  • 180° at 6 KTS
Cloud Levels
  • Clear skies

May-24@
19:00 UTC

May-24 @ 19:00 UTC

May-25@
00:00 UTC

May-25 @ 00:00 UTC

FM241900 21008KT P6SM SKC

From

From Standard forecast or significant change

Wind
  • 210° at 8 KTS
Cloud Levels
  • Clear skies